Time;durP1;ratioP1;P1;durP2;ratioP2;P2;SDS_P1;SDS_P2;PMS_P1;PMS_P2;Temp;Humidity;BMP_temperature;BMP_pressure;BME280_temperature;BME280_humidity;BME280_pressure;Samples;Min_cycle;Max_cycle;Signal;HPM_P1;HPM_P2
2024/04/03 00:00:24;;;;;;;0.32;0.20;;;7.40;99.90;;;;;;5043668;28;20060;-77
2024/04/03 00:02:50;;;;;;;1.00;0.50;;;7.40;99.90;;;;;;5048461;28;20123;-77
2024/04/03 00:05:16;;;;;;;2.00;0.47;;;7.40;99.90;;;;;;5040879;28;20094;-78
2024/04/03 00:07:41;;;;;;;1.10;0.32;;;7.50;99.90;;;;;;5047542;28;20124;-77
2024/04/03 00:10:07;;;;;;;0.43;0.30;;;7.60;99.90;;;;;;5047936;28;20044;-77
2024/04/03 00:12:34;;;;;;;1.25;0.50;;;7.50;99.90;;;;;;5048868;28;20479;-78
2024/04/03 00:15:00;;;;;;;0.35;0.20;;;7.50;99.90;;;;;;5045701;28;20033;-78
2024/04/03 00:17:25;;;;;;;2.03;0.30;;;7.60;99.90;;;;;;5046211;28;20580;-78
2024/04/03 00:19:51;;;;;;;1.65;1.13;;;7.60;99.90;;;;;;5048867;28;20221;-78
2024/04/03 00:22:17;;;;;;;4.53;0.60;;;7.60;99.90;;;;;;5047912;28;20044;-78
2024/04/03 00:24:42;;;;;;;3.58;0.70;;;7.60;99.90;;;;;;5047831;28;20048;-78
2024/04/03 00:27:08;;;;;;;1.98;0.70;;;7.60;99.90;;;;;;5048612;28;20044;-78
2024/04/03 00:29:34;;;;;;;1.65;0.85;;;7.70;99.90;;;;;;5043568;28;20067;-78
2024/04/03 00:31:59;;;;;;;3.05;0.30;;;7.70;99.90;;;;;;5047715;28;20136;-78
2024/04/03 00:34:25;;;;;;;1.27;0.52;;;7.70;99.90;;;;;;5048542;28;20047;-77
2024/04/03 00:36:51;;;;;;;0.73;0.38;;;7.80;99.90;;;;;;5042361;28;20040;-78
2024/04/03 00:39:16;;;;;;;0.73;0.50;;;7.80;99.90;;;;;;5029868;28;20068;-78
2024/04/03 00:41:42;;;;;;;3.90;0.57;;;7.80;99.90;;;;;;5051807;28;20036;-77
2024/04/03 00:44:08;;;;;;;1.70;0.52;;;7.90;99.90;;;;;;5044680;28;20074;-78
2024/04/03 00:46:34;;;;;;;3.55;0.80;;;7.80;99.90;;;;;;5040298;28;20114;-78
2024/04/03 00:49:02;;;;;;;2.30;0.85;;;7.90;99.90;;;;;;5051721;28;20090;-78
2024/04/03 00:51:28;;;;;;;1.70;0.50;;;7.90;99.90;;;;;;5046076;28;20105;-77
2024/04/03 00:53:54;;;;;;;9.07;1.10;;;7.90;99.90;;;;;;5046504;28;20379;-77
2024/04/03 00:56:23;;;;;;;1.85;0.10;;;7.90;99.90;;;;;;5047877;28;20094;-77
2024/04/03 00:58:48;;;;;;;1.92;0.32;;;7.90;99.90;;;;;;5048104;28;20063;-77
2024/04/03 01:01:14;;;;;;;1.58;0.63;;;7.90;99.90;;;;;;5044396;28;20061;-77
2024/04/03 01:03:40;;;;;;;2.17;0.30;;;7.90;99.90;;;;;;5021944;28;20479;-77
2024/04/03 01:06:06;;;;;;;3.92;0.60;;;7.90;99.90;;;;;;5040366;28;20041;-77
2024/04/03 01:08:32;;;;;;;1.45;0.50;;;7.90;99.90;;;;;;5024697;28;20069;-76
2024/04/03 01:10:58;;;;;;;11.93;0.93;;;7.90;99.90;;;;;;5023143;28;20088;-76
2024/04/03 01:13:25;;;;;;;13.30;1.75;;;7.90;99.90;;;;;;5025504;28;20053;-76
2024/04/03 01:15:58;;;;;;;3.97;1.30;;;7.90;99.90;;;;;;5024614;28;20470;-75
2024/04/03 01:18:24;;;;;;;4.68;0.70;;;7.90;99.90;;;;;;5041614;28;20087;-77
2024/04/03 01:20:49;;;;;;;0.60;0.40;;;8.00;99.90;;;;;;5029381;28;20041;-75
2024/04/03 01:23:15;;;;;;;2.35;0.52;;;8.00;99.90;;;;;;5018627;28;20041;-76
2024/04/03 01:25:41;;;;;;;1.65;0.57;;;8.10;99.90;;;;;;5025855;28;20539;-75
2024/04/03 01:28:06;;;;;;;2.03;0.70;;;8.10;99.90;;;;;;5022545;28;20029;-76
2024/04/03 01:30:32;;;;;;;6.35;0.82;;;8.10;99.90;;;;;;5045968;28;20029;-75
2024/04/03 01:32:58;;;;;;;5.97;0.77;;;8.10;99.90;;;;;;5044037;28;20168;-76
2024/04/03 01:35:24;;;;;;;3.20;0.50;;;8.10;99.90;;;;;;5023746;28;20513;-76
2024/04/03 01:37:49;;;;;;;1.83;0.52;;;8.20;99.90;;;;;;5021448;28;20107;-76
2024/04/03 01:40:15;;;;;;;3.63;1.08;;;8.20;99.90;;;;;;5021614;28;20053;-75
2024/04/03 01:42:41;;;;;;;3.10;0.45;;;8.20;99.90;;;;;;5015359;28;20128;-76
2024/04/03 01:45:06;;;;;;;5.32;0.90;;;8.30;99.90;;;;;;5026111;28;20061;-76
2024/04/03 01:47:32;;;;;;;3.65;0.73;;;8.30;99.90;;;;;;5025595;28;20184;-76
2024/04/03 01:49:59;;;;;;;1.88;0.82;;;8.30;99.90;;;;;;5021444;28;20042;-76
2024/04/03 01:52:25;;;;;;;2.85;0.60;;;8.40;99.90;;;;;;5020813;28;20025;-75
2024/04/03 01:54:51;;;;;;;3.50;0.50;;;8.40;99.90;;;;;;5023001;28;20704;-75
2024/04/03 01:57:17;;;;;;;8.23;1.08;;;8.40;99.90;;;;;;5019699;28;20059;-75
2024/04/03 01:59:42;;;;;;;0.85;0.50;;;8.40;99.90;;;;;;5022662;28;20046;-76
2024/04/03 02:02:08;;;;;;;1.65;0.70;;;8.50;99.90;;;;;;5031629;28;20048;-77
2024/04/03 02:04:34;;;;;;;1.52;0.73;;;8.50;99.90;;;;;;5049973;28;20464;-76
2024/04/03 02:06:59;;;;;;;2.72;0.63;;;8.60;99.90;;;;;;5049891;28;20036;-76
2024/04/03 02:09:25;;;;;;;0.90;0.28;;;8.70;99.90;;;;;;5044760;28;20033;-76
2024/04/03 02:11:51;;;;;;;1.67;0.73;;;8.70;99.90;;;;;;5048205;28;20106;-76
2024/04/03 02:14:16;;;;;;;0.38;0.20;;;8.70;99.90;;;;;;5045843;28;20036;-77
2024/04/03 02:16:46;;;;;;;4.95;0.70;;;8.80;99.90;;;;;;5048289;28;20127;-77
2024/04/03 02:19:12;;;;;;;1.02;0.43;;;8.70;99.90;;;;;;5046263;28;20459;-77
2024/04/03 02:21:39;;;;;;;2.47;0.82;;;8.80;99.90;;;;;;5043480;28;20129;-77
2024/04/03 02:24:05;;;;;;;2.55;0.47;;;8.80;99.90;;;;;;5037734;28;20132;-76
2024/04/03 02:26:31;;;;;;;2.42;0.55;;;8.80;99.90;;;;;;5044330;28;20055;-76
2024/04/03 02:28:56;;;;;;;6.00;0.85;;;8.80;99.90;;;;;;5044304;28;20493;-76
2024/04/03 02:31:23;;;;;;;3.25;0.68;;;8.80;99.90;;;;;;5046099;28;20076;-76
2024/04/03 02:33:49;;;;;;;14.18;1.75;;;8.80;99.90;;;;;;5046302;28;20112;-77
2024/04/03 02:36:15;;;;;;;3.50;0.65;;;8.90;99.90;;;;;;5050042;28;20049;-76
2024/04/03 02:38:40;;;;;;;2.60;1.27;;;8.80;99.90;;;;;;5059508;28;20043;-76
2024/04/03 02:41:06;;;;;;;0.65;0.50;;;8.90;99.90;;;;;;5058835;28;20072;-76
2024/04/03 02:43:32;;;;;;;10.13;1.30;;;8.90;99.90;;;;;;5055273;28;20056;-77
2024/04/03 02:45:58;;;;;;;1.13;0.77;;;8.90;99.90;;;;;;5062018;28;20049;-76
2024/04/03 02:48:23;;;;;;;0.65;0.35;;;8.90;99.90;;;;;;5056837;28;20044;-76
2024/04/03 02:50:49;;;;;;;3.25;0.65;;;8.90;99.90;;;;;;5048926;28;20032;-77
2024/04/03 02:53:16;;;;;;;1.83;0.40;;;8.90;99.90;;;;;;5057451;28;20098;-76
2024/04/03 02:55:42;;;;;;;8.25;0.82;;;8.80;99.90;;;;;;5055467;28;20069;-76
2024/04/03 02:58:08;;;;;;;0.73;0.30;;;8.90;99.90;;;;;;5046871;28;20090;-77
2024/04/03 03:00:33;;;;;;;5.50;0.88;;;8.80;99.90;;;;;;5049539;28;20128;-76
2024/04/03 03:02:59;;;;;;;2.42;0.93;;;8.80;99.90;;;;;;5052104;28;20091;-76
2024/04/03 03:05:26;;;;;;;6.70;1.27;;;8.80;99.90;;;;;;5056891;28;20464;-77
2024/04/03 03:07:51;;;;;;;2.67;1.00;;;8.80;99.90;;;;;;5054516;28;20037;-79
2024/04/03 03:10:17;;;;;;;1.25;0.40;;;8.80;99.90;;;;;;5062528;28;20070;-78
2024/04/03 03:12:43;;;;;;;1.95;0.73;;;8.80;99.90;;;;;;5058315;28;20037;-79
2024/04/03 03:15:09;;;;;;;1.52;0.82;;;8.80;99.90;;;;;;5050218;28;20048;-82
2024/04/03 03:17:34;;;;;;;1.98;0.68;;;8.80;99.90;;;;;;5050572;28;20040;-79
2024/04/03 03:20:00;;;;;;;4.10;1.10;;;8.80;99.90;;;;;;5045859;28;20094;-81
2024/04/03 03:22:26;;;;;;;3.03;1.17;;;8.70;99.90;;;;;;5053055;28;20056;-80
2024/04/03 03:24:51;;;;;;;3.92;1.33;;;8.70;99.90;;;;;;5041903;28;20183;-80
2024/04/03 03:27:17;;;;;;;1.70;0.75;;;8.80;99.90;;;;;;5043723;28;20040;-80
2024/04/03 03:29:42;;;;;;;2.35;1.00;;;8.70;99.90;;;;;;5054463;28;20033;-79
2024/04/03 03:32:08;;;;;;;4.05;0.88;;;8.70;99.90;;;;;;5060417;28;20089;-79
2024/04/03 03:34:34;;;;;;;0.70;0.40;;;8.70;99.90;;;;;;5060584;28;20423;-79
2024/04/03 03:36:59;;;;;;;3.25;0.43;;;8.70;99.90;;;;;;5058491;28;20100;-80
2024/04/03 03:39:25;;;;;;;0.98;0.55;;;8.60;99.90;;;;;;5067816;28;20112;-77
2024/04/03 03:41:51;;;;;;;1.50;0.65;;;8.70;99.90;;;;;;5061059;28;20036;-78
2024/04/03 03:44:16;;;;;;;2.53;0.73;;;8.70;99.90;;;;;;5062484;28;20495;-79
2024/04/03 03:46:42;;;;;;;4.38;1.42;;;8.60;99.90;;;;;;5060552;28;20061;-78
2024/04/03 03:54:37;;;;;;;5.43;1.48;;;8.60;99.90;;;;;;5061330;28;20519;-79
2024/04/03 03:57:03;;;;;;;1.23;1.08;;;8.60;99.90;;;;;;5061671;28;20045;-79
2024/04/03 03:59:29;;;;;;;6.90;1.48;;;8.60;99.90;;;;;;5052904;28;20476;-79
2024/04/03 04:01:55;;;;;;;4.53;1.80;;;8.60;99.90;;;;;;5055450;28;20550;-78
2024/04/03 04:04:20;;;;;;;3.83;1.38;;;8.60;99.90;;;;;;5061751;28;20059;-78
2024/04/03 04:06:46;;;;;;;2.55;1.50;;;8.70;99.90;;;;;;5053958;28;20036;-81
2024/04/03 04:09:12;;;;;;;2.35;1.27;;;8.70;99.90;;;;;;5044671;28;20052;-80
2024/04/03 04:11:37;;;;;;;3.10;1.83;;;8.70;99.90;;;;;;5050939;28;20043;-80
2024/04/03 04:14:03;;;;;;;5.65;1.90;;;8.70;99.90;;;;;;5043830;28;20047;-79
2024/04/03 04:16:29;;;;;;;1.75;0.90;;;8.70;99.90;;;;;;5041268;28;20056;-78
2024/04/03 04:18:54;;;;;;;1.88;1.08;;;8.70;99.90;;;;;;5034230;28;20042;-79
2024/04/03 04:21:22;;;;;;;3.78;1.65;;;8.70;99.90;;;;;;5052775;28;20118;-80
2024/04/03 04:23:48;;;;;;;2.03;0.95;;;8.70;99.90;;;;;;5050535;28;20048;-78
2024/04/03 04:26:14;;;;;;;2.20;0.93;;;8.70;99.90;;;;;;5042964;28;20055;-78
2024/04/03 04:28:40;;;;;;;3.03;1.83;;;8.70;99.90;;;;;;5047624;28;20098;-79
2024/04/03 04:31:06;;;;;;;4.20;1.50;;;8.60;99.90;;;;;;5045151;28;20044;-76
2024/04/03 04:33:34;;;;;;;3.80;1.30;;;8.70;99.90;;;;;;5048591;28;20040;-77
2024/04/03 04:36:00;;;;;;;9.80;1.65;;;8.70;99.90;;;;;;5048748;28;20515;-78
2024/04/03 04:38:27;;;;;;;3.10;1.77;;;8.70;99.90;;;;;;5046395;28;20041;-78
2024/04/03 04:41:00;;;;;;;3.20;1.13;;;8.70;99.90;;;;;;5048869;28;20039;-77
2024/04/03 04:43:28;;;;;;;2.13;1.45;;;8.70;99.90;;;;;;5043498;28;20120;-79
2024/04/03 04:46:02;;;;;;;4.20;1.92;;;8.80;99.90;;;;;;5042417;28;20044;-80
2024/04/03 04:48:30;;;;;;;4.60;1.90;;;8.70;99.90;;;;;;5047453;28;20037;-79
2024/04/03 04:51:00;;;;;;;3.63;1.70;;;8.80;99.90;;;;;;5045962;28;20040;-78
2024/04/03 04:53:27;;;;;;;2.17;1.27;;;8.70;99.90;;;;;;5050273;28;20041;-78
2024/04/03 04:56:03;;;;;;;3.28;1.83;;;8.70;99.90;;;;;;5030767;28;20035;-77
2024/04/03 04:58:30;;;;;;;3.10;1.52;;;8.70;99.90;;;;;;5048919;28;20044;-77
2024/04/03 05:01:06;;;;;;;1.73;1.20;;;8.80;99.90;;;;;;5030266;28;20053;-77
2024/04/03 05:03:33;;;;;;;5.47;1.85;;;8.80;99.90;;;;;;5045491;28;20044;-78
2024/04/03 05:05:59;;;;;;;2.58;1.63;;;8.80;99.90;;;;;;5043839;28;20049;-81
2024/04/03 05:08:26;;;;;;;2.38;1.15;;;8.80;99.90;;;;;;5044133;28;20071;-78
2024/04/03 05:10:57;;;;;;;6.10;2.38;;;8.80;99.90;;;;;;5046094;28;20036;-77
2024/04/03 05:13:24;;;;;;;4.05;1.45;;;8.80;99.90;;;;;;5047571;28;20068;-79
2024/04/03 05:15:50;;;;;;;3.00;1.90;;;8.80;99.90;;;;;;5045416;28;20042;-79
2024/04/03 05:18:16;;;;;;;3.03;1.88;;;8.80;99.90;;;;;;5042952;28;20037;-79
2024/04/03 05:20:42;;;;;;;3.55;1.40;;;8.80;99.90;;;;;;5049800;28;20128;-78
2024/04/03 05:23:08;;;;;;;2.95;1.35;;;8.80;99.90;;;;;;5044958;28;20497;-79
2024/04/03 05:25:33;;;;;;;5.47;1.92;;;8.80;99.90;;;;;;5047579;28;20040;-78
2024/04/03 05:27:59;;;;;;;4.03;1.60;;;8.80;99.90;;;;;;5052593;28;20389;-77
2024/04/03 05:30:25;;;;;;;1.77;1.33;;;8.80;99.90;;;;;;5052306;28;20052;-79
2024/04/03 05:32:51;;;;;;;1.70;1.10;;;9.00;99.90;;;;;;5037775;28;20094;-78
2024/04/03 05:35:18;;;;;;;2.13;1.38;;;8.80;99.90;;;;;;5052718;28;20123;-78
2024/04/03 05:37:44;;;;;;;2.95;1.58;;;8.90;99.90;;;;;;5045858;28;20535;-79
2024/04/03 05:40:11;;;;;;;2.92;1.45;;;9.00;99.90;;;;;;5045588;28;20048;-79
2024/04/03 05:42:36;;;;;;;2.60;2.05;;;8.90;99.90;;;;;;5047256;28;20044;-79
2024/04/03 05:45:03;;;;;;;2.30;1.73;;;8.90;99.90;;;;;;5047136;28;20047;-79
2024/04/03 05:47:29;;;;;;;4.10;1.88;;;9.00;99.90;;;;;;5047434;28;20142;-79
2024/04/03 05:49:55;;;;;;;2.72;1.33;;;9.00;99.90;;;;;;5039256;28;20033;-79
2024/04/03 05:52:21;;;;;;;2.65;1.63;;;9.00;99.90;;;;;;5042748;28;20032;-78
2024/04/03 05:54:48;;;;;;;4.07;1.65;;;9.00;99.90;;;;;;5044766;28;20405;-80
2024/04/03 05:57:16;;;;;;;2.50;1.35;;;9.00;99.90;;;;;;5048156;28;20047;-79
2024/04/03 05:59:42;;;;;;;2.30;1.45;;;9.00;99.90;;;;;;5043199;28;20049;-79
2024/04/03 06:02:07;;;;;;;5.60;1.27;;;9.10;99.90;;;;;;5037032;28;20049;-78
2024/04/03 06:04:33;;;;;;;3.25;1.65;;;9.10;99.90;;;;;;5042251;28;20134;-78
2024/04/03 06:07:00;;;;;;;3.42;1.60;;;9.10;99.90;;;;;;5029936;28;20049;-77
2024/04/03 06:09:26;;;;;;;3.20;1.67;;;9.10;99.90;;;;;;5052839;28;20128;-74
2024/04/03 06:11:51;;;;;;;4.72;2.13;;;9.20;99.90;;;;;;5049111;28;20068;-75
2024/04/03 06:14:17;;;;;;;3.63;2.03;;;9.10;99.90;;;;;;5054906;28;20569;-75
2024/04/03 06:16:43;;;;;;;4.00;1.92;;;9.20;99.90;;;;;;5057593;28;20047;-76
2024/04/03 06:19:12;;;;;;;2.53;1.90;;;9.20;99.90;;;;;;5058810;28;20037;-76
2024/04/03 06:21:38;;;;;;;7.65;2.28;;;9.20;99.90;;;;;;5061099;28;20041;-76
2024/04/03 06:24:07;;;;;;;3.38;1.63;;;9.20;99.90;;;;;;5065129;28;20049;-76
2024/04/03 06:26:33;;;;;;;3.03;1.50;;;9.30;99.90;;;;;;5055297;28;20098;-77
2024/04/03 06:29:00;;;;;;;3.45;2.05;;;9.30;99.90;;;;;;5051120;28;20051;-76
2024/04/03 06:31:30;;;;;;;1.85;1.60;;;9.40;99.90;;;;;;5060969;28;20033;-76
2024/04/03 06:33:56;;;;;;;3.45;1.95;;;9.30;99.90;;;;;;5058386;28;20094;-75
2024/04/03 06:36:23;;;;;;;1.77;1.20;;;9.30;99.90;;;;;;5057123;28;20400;-74
2024/04/03 06:38:49;;;;;;;2.38;1.73;;;9.40;99.90;;;;;;5062100;28;20087;-75
2024/04/03 06:41:14;;;;;;;3.00;1.52;;;9.40;99.90;;;;;;5056982;28;20032;-74
2024/04/03 06:43:41;;;;;;;3.05;1.60;;;9.40;99.90;;;;;;5053623;28;20076;-74
2024/04/03 06:46:06;;;;;;;2.80;1.65;;;9.40;99.90;;;;;;5055214;28;20097;-74
2024/04/03 06:48:32;;;;;;;3.17;2.08;;;9.50;99.90;;;;;;5047907;28;20080;-74
2024/04/03 06:50:58;;;;;;;2.58;1.80;;;9.50;99.90;;;;;;5059156;28;20097;-74
2024/04/03 06:53:23;;;;;;;2.97;1.40;;;9.50;99.90;;;;;;5057346;28;20049;-74
2024/04/03 06:56:00;;;;;;;2.67;1.88;;;9.50;99.90;;;;;;5054393;28;20044;-74
2024/04/03 06:58:27;;;;;;;3.17;2.03;;;9.50;99.90;;;;;;5047796;28;20079;-74
2024/04/03 07:00:53;;;;;;;2.83;1.70;;;9.60;99.90;;;;;;5052200;28;20409;-73
2024/04/03 07:03:19;;;;;;;4.28;1.40;;;9.60;99.90;;;;;;5052176;28;20061;-74
2024/04/03 07:05:46;;;;;;;3.97;1.55;;;9.60;99.90;;;;;;5051922;28;20039;-74
2024/04/03 07:08:12;;;;;;;2.95;1.65;;;9.60;99.90;;;;;;5047016;28;20156;-73
2024/04/03 07:10:38;;;;;;;7.90;1.70;;;9.60;99.90;;;;;;5050617;28;20041;-73
2024/04/03 07:13:04;;;;;;;2.50;1.48;;;9.70;99.90;;;;;;5048875;28;20037;-74
2024/04/03 07:15:32;;;;;;;2.75;1.60;;;9.60;99.90;;;;;;5049735;28;20052;-73
2024/04/03 07:18:00;;;;;;;2.25;1.77;;;9.70;99.90;;;;;;5055436;28;20144;-74
2024/04/03 07:20:28;;;;;;;3.55;1.60;;;9.60;99.90;;;;;;5055170;28;20489;-76
2024/04/03 07:22:56;;;;;;;1.75;1.27;;;9.70;99.90;;;;;;5048742;28;20116;-74
2024/04/03 07:25:22;;;;;;;1.67;1.08;;;9.70;99.90;;;;;;5044762;28;20045;-74
2024/04/03 07:27:49;;;;;;;1.13;0.95;;;9.70;99.90;;;;;;5034257;28;20029;-75
2024/04/03 07:30:15;;;;;;;3.78;1.27;;;9.70;99.90;;;;;;5041940;28;20449;-74
2024/04/03 07:32:41;;;;;;;1.65;1.13;;;9.70;99.90;;;;;;5039737;28;20041;-75
2024/04/03 07:35:07;;;;;;;2.13;1.23;;;9.80;99.90;;;;;;5042339;28;20044;-76
2024/04/03 07:37:41;;;;;;;1.38;1.00;;;9.80;99.90;;;;;;5043265;28;20043;-75
2024/04/03 07:40:11;;;;;;;1.33;1.00;;;9.80;99.90;;;;;;5058674;28;20049;-75
2024/04/03 07:42:40;;;;;;;5.10;0.98;;;9.90;99.90;;;;;;5042186;28;20115;-75
2024/04/03 07:45:07;;;;;;;1.40;0.50;;;9.90;99.90;;;;;;5026303;28;20455;-74
2024/04/03 07:47:34;;;;;;;4.25;1.08;;;9.90;99.90;;;;;;5049005;28;20033;-74
2024/04/03 07:50:03;;;;;;;1.50;0.85;;;9.90;99.90;;;;;;5043846;28;20033;-74
2024/04/03 07:52:28;;;;;;;2.38;1.33;;;9.90;99.90;;;;;;5043113;28;20052;-75
2024/04/03 07:54:54;;;;;;;2.03;1.35;;;9.90;99.90;;;;;;5044502;28;20033;-74
2024/04/03 07:57:20;;;;;;;0.57;0.55;;;10.00;99.90;;;;;;5042043;28;20099;-74
2024/04/03 07:59:48;;;;;;;1.38;0.63;;;9.90;99.90;;;;;;5045044;28;20048;-74
2024/04/03 08:02:14;;;;;;;2.35;1.33;;;10.00;99.90;;;;;;5043953;28;20429;-74
2024/04/03 08:04:41;;;;;;;2.80;0.93;;;10.00;99.90;;;;;;5051808;28;20496;-73
2024/04/03 08:07:10;;;;;;;3.47;1.05;;;10.00;99.90;;;;;;5045628;28;20111;-74
2024/04/03 08:09:35;;;;;;;1.27;0.77;;;10.10;99.90;;;;;;5071170;28;20036;-74
2024/04/03 08:12:02;;;;;;;2.25;1.23;;;10.20;99.90;;;;;;5060827;28;20128;-74
2024/04/03 08:14:28;;;;;;;4.47;1.10;;;10.20;99.90;;;;;;5054682;28;20040;-73
2024/04/03 08:16:54;;;;;;;0.95;0.40;;;10.20;99.90;;;;;;5058619;28;20063;-73
2024/04/03 08:19:22;;;;;;;1.35;1.00;;;10.30;99.90;;;;;;5058056;28;20036;-73
2024/04/03 08:21:48;;;;;;;1.83;0.70;;;10.40;99.90;;;;;;5055677;28;20033;-73
2024/04/03 08:24:14;;;;;;;1.98;1.30;;;10.40;99.90;;;;;;5051889;28;20412;-73
2024/04/03 08:26:40;;;;;;;1.75;0.63;;;10.50;99.90;;;;;;5051618;28;20056;-73
2024/04/03 08:29:06;;;;;;;1.75;1.10;;;10.50;99.90;;;;;;5048555;28;20500;-73
2024/04/03 08:31:32;;;;;;;1.30;0.57;;;10.60;99.90;;;;;;5047099;28;20124;-73
2024/04/03 08:33:58;;;;;;;0.70;0.60;;;10.60;99.90;;;;;;5057315;28;20044;-73
2024/04/03 08:36:27;;;;;;;0.52;0.50;;;10.60;99.90;;;;;;5046953;28;20037;-73
2024/04/03 08:38:53;;;;;;;1.02;0.50;;;10.70;99.90;;;;;;5053541;28;20041;-73
2024/04/03 08:41:19;;;;;;;1.33;0.60;;;10.70;99.90;;;;;;5045450;28;20045;-73
2024/04/03 08:43:51;;;;;;;1.23;0.70;;;10.80;99.90;;;;;;5054144;28;20144;-73
2024/04/03 08:46:18;;;;;;;3.33;1.92;;;10.80;99.90;;;;;;5049886;28;20572;-74
2024/04/03 08:48:46;;;;;;;2.60;1.00;;;10.90;99.90;;;;;;5046575;28;20121;-73
2024/04/03 08:51:14;;;;;;;6.63;1.83;;;10.90;99.90;;;;;;5045717;28;20128;-73
2024/04/03 08:53:43;;;;;;;1.58;0.93;;;11.00;99.90;;;;;;5047788;28;20452;-73
2024/04/03 08:56:12;;;;;;;1.00;0.80;;;11.00;99.90;;;;;;5050231;28;20096;-73
2024/04/03 08:58:38;;;;;;;0.98;0.43;;;10.90;99.90;;;;;;5047869;28;20098;-72
2024/04/03 09:01:05;;;;;;;2.70;0.60;;;10.90;99.90;;;;;;5040414;28;20061;-73
2024/04/03 09:03:31;;;;;;;2.80;1.02;;;10.90;99.90;;;;;;5051985;28;20052;-74
2024/04/03 09:05:56;;;;;;;1.63;1.02;;;10.90;99.90;;;;;;5044987;28;20037;-73
2024/04/03 09:08:22;;;;;;;2.67;0.65;;;10.90;99.90;;;;;;5046846;28;20366;-74
2024/04/03 09:10:54;;;;;;;1.20;0.70;;;10.90;99.90;;;;;;5052844;28;20041;-73
2024/04/03 09:13:20;;;;;;;0.95;0.50;;;10.90;99.90;;;;;;5040918;28;20042;-73
2024/04/03 09:15:51;;;;;;;1.23;0.40;;;10.80;99.90;;;;;;5044918;28;20063;-74
2024/04/03 09:18:19;;;;;;;1.63;0.77;;;10.80;99.90;;;;;;5043616;28;20041;-75
2024/04/03 09:20:50;;;;;;;0.45;0.45;;;10.80;99.90;;;;;;5032072;28;20037;-75
2024/04/03 09:23:17;;;;;;;0.80;0.40;;;10.80;99.90;;;;;;5042731;28;20152;-77
2024/04/03 09:25:43;;;;;;;1.60;0.77;;;10.70;99.90;;;;;;5046101;28;20041;-76
2024/04/03 09:28:10;;;;;;;18.67;9.18;;;10.80;99.90;;;;;;5047555;28;20045;-75
2024/04/03 09:30:49;;;;;;;1.67;1.02;;;10.70;99.90;;;;;;5057158;28;20093;-74
2024/04/03 09:33:16;;;;;;;1.23;0.50;;;10.80;99.90;;;;;;5059598;28;20048;-75
2024/04/03 09:35:43;;;;;;;1.08;0.43;;;10.70;99.90;;;;;;5058847;28;20419;-74
2024/04/03 09:38:14;;;;;;;0.93;0.52;;;10.80;99.90;;;;;;5050197;28;20044;-74
2024/04/03 09:40:40;;;;;;;2.03;0.95;;;10.80;99.90;;;;;;5070604;28;20134;-73
2024/04/03 09:43:07;;;;;;;3.50;0.95;;;10.80;99.90;;;;;;5050064;28;20056;-73
2024/04/03 09:45:34;;;;;;;0.70;0.50;;;10.90;99.90;;;;;;5041776;28;20076;-74
2024/04/03 09:48:01;;;;;;;0.93;0.70;;;10.90;99.90;;;;;;5042440;28;20099;-73
2024/04/03 09:50:38;;;;;;;1.23;0.75;;;11.00;99.90;;;;;;5052518;28;20084;-73
2024/04/03 09:53:10;;;;;;;1.58;0.95;;;11.10;99.90;;;;;;5049259;28;20073;-73
2024/04/03 09:55:36;;;;;;;1.02;0.63;;;11.10;99.90;;;;;;5052023;28;20369;-73
2024/04/03 09:58:10;;;;;;;1.50;0.95;;;11.10;99.90;;;;;;5035374;28;20416;-73
2024/04/03 10:00:37;;;;;;;1.77;0.90;;;11.10;99.90;;;;;;5053139;28;20057;-73
2024/04/03 10:03:04;;;;;;;1.50;0.60;;;11.10;99.90;;;;;;5048920;28;20140;-72
2024/04/03 10:05:39;;;;;;;1.48;0.80;;;11.10;99.90;;;;;;5041593;28;20124;-72
2024/04/03 10:08:10;;;;;;;2.63;0.80;;;11.20;99.90;;;;;;5047207;28;20045;-72
2024/04/03 10:10:46;;;;;;;1.38;0.60;;;11.10;99.90;;;;;;5036596;28;20052;-72
2024/04/03 10:13:33;;;;;;;2.30;0.85;;;11.10;99.90;;;;;;5046574;28;20045;-72
2024/04/03 10:16:03;;;;;;;0.93;0.40;;;11.10;99.90;;;;;;5053391;28;20053;-72
2024/04/03 10:18:33;;;;;;;0.82;0.50;;;11.10;99.90;;;;;;5043272;28;20088;-72
2024/04/03 10:21:00;;;;;;;1.67;1.05;;;11.10;99.90;;;;;;5034986;28;20120;-72
2024/04/03 10:23:26;;;;;;;3.20;0.52;;;11.10;99.90;;;;;;5041809;28;20049;-72
2024/04/03 10:25:52;;;;;;;0.88;0.55;;;11.10;99.90;;;;;;5050465;28;20123;-72
2024/04/03 10:28:18;;;;;;;0.38;0.30;;;11.10;99.90;;;;;;5046687;28;20380;-72
2024/04/03 10:30:52;;;;;;;0.68;0.43;;;11.10;99.90;;;;;;5049475;28;20039;-72
2024/04/03 10:33:18;;;;;;;0.98;0.60;;;11.10;99.90;;;;;;5047596;28;20404;-72
2024/04/03 10:35:43;;;;;;;3.25;0.40;;;11.10;99.90;;;;;;5051971;28;20037;-71
2024/04/03 10:38:09;;;;;;;2.00;0.85;;;11.00;99.90;;;;;;5045658;28;20041;-72
2024/04/03 10:40:35;;;;;;;7.63;3.67;;;11.00;99.90;;;;;;5050742;28;20143;-71
2024/04/03 10:43:01;;;;;;;1.65;1.08;;;11.00;99.90;;;;;;5044334;28;20128;-71
2024/04/03 10:45:27;;;;;;;5.05;0.77;;;11.10;99.90;;;;;;5046866;28;20105;-71
2024/04/03 10:47:52;;;;;;;0.75;0.68;;;11.10;99.90;;;;;;5047100;28;20045;-71
2024/04/03 10:50:19;;;;;;;0.50;0.30;;;11.20;99.90;;;;;;5047119;28;20176;-71
2024/04/03 10:52:45;;;;;;;1.38;0.35;;;11.20;99.90;;;;;;5052953;28;20643;-71
2024/04/03 10:55:12;;;;;;;0.55;0.43;;;11.30;99.90;;;;;;5029202;28;20044;-70
2024/04/03 10:57:41;;;;;;;3.92;1.20;;;11.40;99.90;;;;;;5046871;28;20145;-70
2024/04/03 11:00:14;;;;;;;1.70;0.60;;;11.50;99.90;;;;;;5043876;28;20043;-70
2024/04/03 11:02:45;;;;;;;0.70;0.50;;;11.60;99.90;;;;;;5045834;28;20456;-70
2024/04/03 11:05:17;;;;;;;1.85;0.68;;;11.80;99.90;;;;;;5049957;28;20079;-69
2024/04/03 11:07:43;;;;;;;0.75;0.40;;;11.80;99.90;;;;;;5032834;28;20373;-69
2024/04/03 11:10:12;;;;;;;1.25;0.52;;;11.90;99.90;;;;;;5043723;28;20052;-70
2024/04/03 11:12:39;;;;;;;0.98;0.60;;;12.00;99.90;;;;;;5046095;28;20026;-70
2024/04/03 11:15:09;;;;;;;1.10;0.73;;;12.00;99.90;;;;;;5047074;28;20136;-70
2024/04/03 11:17:36;;;;;;;0.50;0.28;;;12.00;99.90;;;;;;5045972;28;20124;-70
2024/04/03 11:20:02;;;;;;;0.45;0.30;;;12.00;99.90;;;;;;5045274;28;20049;-70
2024/04/03 11:22:29;;;;;;;1.58;0.30;;;11.90;99.90;;;;;;5046501;28;20159;-70
2024/04/03 11:24:55;;;;;;;0.22;0.22;;;11.90;99.90;;;;;;5042852;28;20103;-70
2024/04/03 11:27:22;;;;;;;1.33;0.30;;;11.90;99.90;;;;;;5043820;28;20104;-70
2024/04/03 11:29:48;;;;;;;4.13;0.80;;;11.80;99.90;;;;;;5044059;28;20080;-70
2024/04/03 11:32:17;;;;;;;0.80;0.30;;;11.80;99.90;;;;;;5046412;28;20415;-71
2024/04/03 11:34:43;;;;;;;94.55;49.15;;;11.80;99.90;;;;;;5041784;28;20112;-71
2024/04/03 11:37:09;;;;;;;1.63;0.65;;;11.70;99.90;;;;;;5048742;28;20129;-71
2024/04/03 11:39:35;;;;;;;0.47;0.30;;;11.80;99.90;;;;;;5042441;28;20089;-71
2024/04/03 11:42:03;;;;;;;1.00;0.40;;;11.80;99.90;;;;;;5035364;28;20528;-71
2024/04/03 11:44:29;;;;;;;2.00;0.52;;;11.80;99.90;;;;;;5044556;28;20076;-71
2024/04/03 11:46:54;;;;;;;0.43;0.30;;;11.90;99.90;;;;;;5046504;28;20477;-71
2024/04/03 11:49:20;;;;;;;0.80;0.47;;;11.80;99.90;;;;;;5048883;28;20037;-71
2024/04/03 11:51:49;;;;;;;0.35;0.32;;;11.80;99.90;;;;;;5045786;28;20116;-71
2024/04/03 11:54:15;;;;;;;0.20;0.20;;;11.80;99.90;;;;;;5045015;28;20045;-71
2024/04/03 11:56:41;;;;;;;0.57;0.20;;;11.70;99.90;;;;;;5044662;28;20040;-71
2024/04/03 11:59:07;;;;;;;2.55;0.35;;;11.70;99.90;;;;;;5050204;28;20102;-71
2024/04/03 12:01:34;;;;;;;0.45;0.35;;;11.70;99.90;;;;;;5044185;28;20468;-71
2024/04/03 12:03:59;;;;;;;0.52;0.40;;;11.80;99.90;;;;;;5042789;28;20095;-71
2024/04/03 12:06:25;;;;;;;4.53;0.25;;;11.90;99.90;;;;;;5041650;28;20069;-71
2024/04/03 12:08:51;;;;;;;0.55;0.32;;;11.90;99.90;;;;;;5046561;28;20062;-71
2024/04/03 12:11:17;;;;;;;0.20;0.20;;;11.90;99.90;;;;;;5042043;28;20106;-71
2024/04/03 12:13:43;;;;;;;0.20;0.20;;;12.00;99.90;;;;;;5038808;28;20397;-71
2024/04/03 12:16:13;;;;;;;0.85;0.22;;;12.10;99.90;;;;;;5039499;28;20398;-71
2024/04/03 12:21:25;;;;;;;1.20;0.40;;;12.20;99.90;;;;;;5028302;28;20044;-72
2024/04/03 12:23:50;;;;;;;0.50;0.25;;;12.30;99.90;;;;;;5045027;28;20041;-71
2024/04/03 12:26:16;;;;;;;0.32;0.20;;;12.30;99.90;;;;;;5039676;28;20438;-70
2024/04/03 12:28:42;;;;;;;2.45;1.30;;;12.40;99.90;;;;;;5050528;28;20378;-71
2024/04/03 12:31:08;;;;;;;1.17;0.57;;;12.80;99.90;;;;;;5040502;28;20036;-68
2024/04/03 12:33:34;;;;;;;0.93;0.40;;;13.30;99.90;;;;;;5048551;28;20394;-70
2024/04/03 12:36:00;;;;;;;0.57;0.50;;;13.50;99.90;;;;;;5033376;28;20128;-71
2024/04/03 12:38:26;;;;;;;1.00;0.28;;;13.50;99.90;;;;;;5036970;28;20037;-71
2024/04/03 12:40:51;;;;;;;0.52;0.30;;;13.60;99.90;;;;;;5036989;28;20116;-71
2024/04/03 12:43:17;;;;;;;0.00;0.00;;;13.80;99.90;;;;;;5039417;28;20731;-71
2024/04/03 12:45:43;;;;;;;0.30;0.30;;;13.80;99.90;;;;;;5040964;28;20124;-72
2024/04/03 12:48:09;;;;;;;0.10;0.10;;;13.80;99.90;;;;;;5039090;28;20488;-71
2024/04/03 12:50:35;;;;;;;0.20;0.10;;;13.70;99.90;;;;;;5042891;28;20045;-72
2024/04/03 12:53:01;;;;;;;0.40;0.20;;;13.70;99.90;;;;;;5039963;28;20037;-72
2024/04/03 12:55:27;;;;;;;0.40;0.20;;;14.00;99.90;;;;;;5037975;28;20053;-72
2024/04/03 12:57:53;;;;;;;2.92;0.32;;;14.40;99.90;;;;;;5038839;28;20509;-72